sensor_id;sensor_type;location;lat;lon;timestamp;temperature;humidity
6106;DHT22;3083;51.508;7.966;2022-10-31T00:01:58;11.60;99.90
6106;DHT22;3083;51.508;7.966;2022-10-31T00:04:25;11.60;99.90
6106;DHT22;3083;51.508;7.966;2022-10-31T00:06:52;11.60;99.90
6106;DHT22;3083;51.508;7.966;2022-10-31T00:09:19;11.50;99.90
6106;DHT22;3083;51.508;7.966;2022-10-31T00:11:46;11.50;99.90
6106;DHT22;3083;51.508;7.966;2022-10-31T00:14:13;11.50;99.90
6106;DHT22;3083;51.508;7.966;2022-10-31T00:16:40;11.30;99.90
6106;DHT22;3083;51.508;7.966;2022-10-31T00:19:08;11.30;99.90
6106;DHT22;3083;51.508;7.966;2022-10-31T00:21:35;11.20;99.90
6106;DHT22;3083;51.508;7.966;2022-10-31T00:24:02;11.20;99.90
6106;DHT22;3083;51.508;7.966;2022-10-31T00:26:31;11.20;99.90
6106;DHT22;3083;51.508;7.966;2022-10-31T00:28:59;11.20;99.90
6106;DHT22;3083;51.508;7.966;2022-10-31T00:31:26;11.20;99.90
6106;DHT22;3083;51.508;7.966;2022-10-31T00:33:53;11.10;99.90
6106;DHT22;3083;51.508;7.966;2022-10-31T00:36:21;11.10;99.90
6106;DHT22;3083;51.508;7.966;2022-10-31T00:38:48;11.10;99.90
6106;DHT22;3083;51.508;7.966;2022-10-31T00:41:16;11.00;99.90
6106;DHT22;3083;51.508;7.966;2022-10-31T00:43:44;11.00;99.90
6106;DHT22;3083;51.508;7.966;2022-10-31T00:46:11;11.00;99.90
6106;DHT22;3083;51.508;7.966;2022-10-31T00:48:38;11.00;99.90
6106;DHT22;3083;51.508;7.966;2022-10-31T00:51:05;11.00;99.90
6106;DHT22;3083;51.508;7.966;2022-10-31T00:53:34;11.00;99.90
6106;DHT22;3083;51.508;7.966;2022-10-31T00:56:01;10.90;99.90
6106;DHT22;3083;51.508;7.966;2022-10-31T00:58:28;11.00;99.90
6106;DHT22;3083;51.508;7.966;2022-10-31T01:00:55;11.10;99.90
6106;DHT22;3083;51.508;7.966;2022-10-31T01:03:23;11.10;99.90
6106;DHT22;3083;51.508;7.966;2022-10-31T01:06:02;11.20;99.90
6106;DHT22;3083;51.508;7.966;2022-10-31T01:08:30;11.30;99.90
6106;DHT22;3083;51.508;7.966;2022-10-31T01:11:04;11.40;99.90
6106;DHT22;3083;51.508;7.966;2022-10-31T01:13:31;11.50;99.90
6106;DHT22;3083;51.508;7.966;2022-10-31T01:15:59;11.50;99.90
6106;DHT22;3083;51.508;7.966;2022-10-31T01:18:27;11.60;99.90
6106;DHT22;3083;51.508;7.966;2022-10-31T01:20:58;11.70;99.90
6106;DHT22;3083;51.508;7.966;2022-10-31T01:23:26;11.70;99.90
6106;DHT22;3083;51.508;7.966;2022-10-31T01:26:05;11.80;99.90
6106;DHT22;3083;51.508;7.966;2022-10-31T01:28:33;11.80;99.90
6106;DHT22;3083;51.508;7.966;2022-10-31T01:31:01;11.80;99.90
6106;DHT22;3083;51.508;7.966;2022-10-31T01:33:28;11.90;99.90
6106;DHT22;3083;51.508;7.966;2022-10-31T01:35:55;11.90;99.90
6106;DHT22;3083;51.508;7.966;2022-10-31T01:38:22;11.90;99.90
6106;DHT22;3083;51.508;7.966;2022-10-31T01:40:49;11.90;99.90
6106;DHT22;3083;51.508;7.966;2022-10-31T01:43:18;11.90;99.90
6106;DHT22;3083;51.508;7.966;2022-10-31T01:45:51;11.90;99.90
6106;DHT22;3083;51.508;7.966;2022-10-31T01:48:21;11.80;99.90
6106;DHT22;3083;51.508;7.966;2022-10-31T01:50:51;11.80;99.90
6106;DHT22;3083;51.508;7.966;2022-10-31T01:53:21;11.80;99.90
6106;DHT22;3083;51.508;7.966;2022-10-31T01:55:49;11.90;99.90
6106;DHT22;3083;51.508;7.966;2022-10-31T01:58:21;11.90;99.90
6106;DHT22;3083;51.508;7.966;2022-10-31T02:00:52;12.00;99.90
6106;DHT22;3083;51.508;7.966;2022-10-31T02:03:20;12.00;99.90
6106;DHT22;3083;51.508;7.966;2022-10-31T02:05:49;12.00;99.90
6106;DHT22;3083;51.508;7.966;2022-10-31T02:08:19;12.10;99.90
6106;DHT22;3083;51.508;7.966;2022-10-31T02:10:48;12.10;99.90
6106;DHT22;3083;51.508;7.966;2022-10-31T02:13:16;12.10;99.90
6106;DHT22;3083;51.508;7.966;2022-10-31T02:15:47;12.10;99.90
6106;DHT22;3083;51.508;7.966;2022-10-31T02:18:16;12.10;99.90
6106;DHT22;3083;51.508;7.966;2022-10-31T02:20:50;12.20;99.90
6106;DHT22;3083;51.508;7.966;2022-10-31T02:23:51;12.20;99.90
6106;DHT22;3083;51.508;7.966;2022-10-31T02:32:18;12.10;99.90
6106;DHT22;3083;51.508;7.966;2022-10-31T02:34:52;12.10;99.90
6106;DHT22;3083;51.508;7.966;2022-10-31T02:37:25;12.10;99.90
6106;DHT22;3083;51.508;7.966;2022-10-31T02:39:59;12.20;99.90
6106;DHT22;3083;51.508;7.966;2022-10-31T02:42:34;12.20;99.90
6106;DHT22;3083;51.508;7.966;2022-10-31T02:45:09;12.20;99.90
6106;DHT22;3083;51.508;7.966;2022-10-31T02:47:41;12.20;99.90
6106;DHT22;3083;51.508;7.966;2022-10-31T02:50:12;12.20;99.90
6106;DHT22;3083;51.508;7.966;2022-10-31T02:52:40;12.20;99.90
6106;DHT22;3083;51.508;7.966;2022-10-31T02:55:12;12.20;99.90
6106;DHT22;3083;51.508;7.966;2022-10-31T02:57:41;12.10;99.90
6106;DHT22;3083;51.508;7.966;2022-10-31T03:00:09;12.10;99.90
6106;DHT22;3083;51.508;7.966;2022-10-31T03:02:56;12.00;99.90
6106;DHT22;3083;51.508;7.966;2022-10-31T03:05:44;11.90;99.90
6106;DHT22;3083;51.508;7.966;2022-10-31T03:08:22;11.90;99.90
6106;DHT22;3083;51.508;7.966;2022-10-31T03:10:53;11.90;99.90
6106;DHT22;3083;51.508;7.966;2022-10-31T03:13:27;11.80;99.90
6106;DHT22;3083;51.508;7.966;2022-10-31T03:16:04;11.80;99.90
6106;DHT22;3083;51.508;7.966;2022-10-31T03:18:39;11.70;99.90
6106;DHT22;3083;51.508;7.966;2022-10-31T03:21:08;11.60;99.90
6106;DHT22;3083;51.508;7.966;2022-10-31T03:23:38;11.50;99.90
6106;DHT22;3083;51.508;7.966;2022-10-31T03:26:07;11.40;99.90
6106;DHT22;3083;51.508;7.966;2022-10-31T03:28:39;11.40;99.90
6106;DHT22;3083;51.508;7.966;2022-10-31T03:31:09;11.30;99.90
6106;DHT22;3083;51.508;7.966;2022-10-31T03:33:38;11.30;99.90
6106;DHT22;3083;51.508;7.966;2022-10-31T03:36:08;11.30;99.90
6106;DHT22;3083;51.508;7.966;2022-10-31T03:38:37;11.30;99.90
6106;DHT22;3083;51.508;7.966;2022-10-31T03:41:11;11.20;99.90
6106;DHT22;3083;51.508;7.966;2022-10-31T03:43:43;11.20;99.90
6106;DHT22;3083;51.508;7.966;2022-10-31T03:46:13;11.20;99.90
6106;DHT22;3083;51.508;7.966;2022-10-31T03:48:42;11.20;99.90
6106;DHT22;3083;51.508;7.966;2022-10-31T03:51:15;11.20;99.90
6106;DHT22;3083;51.508;7.966;2022-10-31T03:53:47;11.20;99.90
6106;DHT22;3083;51.508;7.966;2022-10-31T03:56:19;11.20;99.90
6106;DHT22;3083;51.508;7.966;2022-10-31T03:58:51;11.20;99.90
6106;DHT22;3083;51.508;7.966;2022-10-31T04:01:24;11.20;99.90
6106;DHT22;3083;51.508;7.966;2022-10-31T04:03:54;11.30;99.90
6106;DHT22;3083;51.508;7.966;2022-10-31T04:06:22;11.30;99.90
6106;DHT22;3083;51.508;7.966;2022-10-31T04:08:53;11.20;99.90
6106;DHT22;3083;51.508;7.966;2022-10-31T04:11:26;11.20;99.90
6106;DHT22;3083;51.508;7.966;2022-10-31T04:13:55;11.20;99.90
6106;DHT22;3083;51.508;7.966;2022-10-31T04:16:24;11.00;99.90
6106;DHT22;3083;51.508;7.966;2022-10-31T04:18:53;11.00;99.90
6106;DHT22;3083;51.508;7.966;2022-10-31T04:21:26;11.00;99.90
6106;DHT22;3083;51.508;7.966;2022-10-31T04:23:54;11.00;99.90
6106;DHT22;3083;51.508;7.966;2022-10-31T04:26:21;11.00;99.90
6106;DHT22;3083;51.508;7.966;2022-10-31T04:28:48;10.90;99.90
6106;DHT22;3083;51.508;7.966;2022-10-31T04:31:15;10.90;99.90
6106;DHT22;3083;51.508;7.966;2022-10-31T04:33:43;10.90;99.90
6106;DHT22;3083;51.508;7.966;2022-10-31T04:36:11;11.00;99.90
6106;DHT22;3083;51.508;7.966;2022-10-31T04:38:40;11.00;99.90
6106;DHT22;3083;51.508;7.966;2022-10-31T04:41:06;11.00;99.90
6106;DHT22;3083;51.508;7.966;2022-10-31T04:43:33;11.00;99.90
6106;DHT22;3083;51.508;7.966;2022-10-31T04:46:01;11.10;99.90
6106;DHT22;3083;51.508;7.966;2022-10-31T04:48:28;11.10;99.90
6106;DHT22;3083;51.508;7.966;2022-10-31T04:50:58;11.10;99.90
6106;DHT22;3083;51.508;7.966;2022-10-31T04:53:27;11.10;99.90
6106;DHT22;3083;51.508;7.966;2022-10-31T04:55:55;11.20;99.90
6106;DHT22;3083;51.508;7.966;2022-10-31T04:58:24;11.20;99.90
6106;DHT22;3083;51.508;7.966;2022-10-31T05:00:51;11.20;99.90
6106;DHT22;3083;51.508;7.966;2022-10-31T05:03:19;11.20;99.90
6106;DHT22;3083;51.508;7.966;2022-10-31T05:05:45;11.20;99.90
6106;DHT22;3083;51.508;7.966;2022-10-31T05:08:13;11.20;99.90
6106;DHT22;3083;51.508;7.966;2022-10-31T05:10:41;11.20;99.90
6106;DHT22;3083;51.508;7.966;2022-10-31T05:13:08;11.10;99.90
6106;DHT22;3083;51.508;7.966;2022-10-31T05:15:36;11.10;99.90
6106;DHT22;3083;51.508;7.966;2022-10-31T05:18:03;11.10;99.90
6106;DHT22;3083;51.508;7.966;2022-10-31T05:20:30;11.10;99.90
6106;DHT22;3083;51.508;7.966;2022-10-31T05:22:58;11.10;99.90
6106;DHT22;3083;51.508;7.966;2022-10-31T05:25:27;11.10;99.90
6106;DHT22;3083;51.508;7.966;2022-10-31T05:27:55;11.00;99.90
6106;DHT22;3083;51.508;7.966;2022-10-31T05:30:24;11.00;99.90
6106;DHT22;3083;51.508;7.966;2022-10-31T05:32:52;11.00;99.90
6106;DHT22;3083;51.508;7.966;2022-10-31T05:35:20;10.90;99.90
6106;DHT22;3083;51.508;7.966;2022-10-31T05:37:48;10.90;99.90
6106;DHT22;3083;51.508;7.966;2022-10-31T05:40:16;10.90;99.90
6106;DHT22;3083;51.508;7.966;2022-10-31T05:42:44;10.80;99.90
6106;DHT22;3083;51.508;7.966;2022-10-31T05:45:14;10.80;99.90
6106;DHT22;3083;51.508;7.966;2022-10-31T05:47:41;10.70;99.90
6106;DHT22;3083;51.508;7.966;2022-10-31T05:50:09;10.70;99.90
6106;DHT22;3083;51.508;7.966;2022-10-31T05:52:36;10.70;99.90
6106;DHT22;3083;51.508;7.966;2022-10-31T05:55:03;10.60;99.90
6106;DHT22;3083;51.508;7.966;2022-10-31T05:57:32;10.60;99.90
6106;DHT22;3083;51.508;7.966;2022-10-31T05:59:59;10.50;99.90
6106;DHT22;3083;51.508;7.966;2022-10-31T06:02:28;10.50;99.90
6106;DHT22;3083;51.508;7.966;2022-10-31T06:04:57;10.40;99.90
6106;DHT22;3083;51.508;7.966;2022-10-31T06:07:24;10.40;99.90
6106;DHT22;3083;51.508;7.966;2022-10-31T06:09:51;10.30;99.90
6106;DHT22;3083;51.508;7.966;2022-10-31T06:12:18;10.30;99.90
6106;DHT22;3083;51.508;7.966;2022-10-31T06:14:45;10.40;99.90
6106;DHT22;3083;51.508;7.966;2022-10-31T06:17:12;10.40;99.90
6106;DHT22;3083;51.508;7.966;2022-10-31T06:19:40;10.40;99.90
6106;DHT22;3083;51.508;7.966;2022-10-31T06:22:07;10.40;99.90
6106;DHT22;3083;51.508;7.966;2022-10-31T06:24:36;10.40;99.90
6106;DHT22;3083;51.508;7.966;2022-10-31T06:27:03;10.50;99.90
6106;DHT22;3083;51.508;7.966;2022-10-31T06:29:30;10.50;99.90
6106;DHT22;3083;51.508;7.966;2022-10-31T06:31:58;10.60;99.90
6106;DHT22;3083;51.508;7.966;2022-10-31T06:34:25;10.60;99.90
6106;DHT22;3083;51.508;7.966;2022-10-31T06:36:53;10.70;99.90
6106;DHT22;3083;51.508;7.966;2022-10-31T06:39:20;10.70;99.90
6106;DHT22;3083;51.508;7.966;2022-10-31T06:41:47;10.70;99.90
6106;DHT22;3083;51.508;7.966;2022-10-31T06:44:14;10.80;99.90
6106;DHT22;3083;51.508;7.966;2022-10-31T06:46:41;10.80;99.90
6106;DHT22;3083;51.508;7.966;2022-10-31T06:49:08;10.80;99.90
6106;DHT22;3083;51.508;7.966;2022-10-31T06:51:35;10.80;99.90
6106;DHT22;3083;51.508;7.966;2022-10-31T06:54:03;10.80;99.90
6106;DHT22;3083;51.508;7.966;2022-10-31T06:56:30;10.90;99.90
6106;DHT22;3083;51.508;7.966;2022-10-31T06:58:57;10.90;99.90
6106;DHT22;3083;51.508;7.966;2022-10-31T07:01:24;10.90;99.90
6106;DHT22;3083;51.508;7.966;2022-10-31T07:03:51;11.00;99.90
6106;DHT22;3083;51.508;7.966;2022-10-31T07:06:18;11.00;99.90
6106;DHT22;3083;51.508;7.966;2022-10-31T07:08:45;11.10;99.90
6106;DHT22;3083;51.508;7.966;2022-10-31T07:11:13;11.10;99.90
6106;DHT22;3083;51.508;7.966;2022-10-31T07:13:40;11.30;99.90
6106;DHT22;3083;51.508;7.966;2022-10-31T07:16:07;11.30;99.90
6106;DHT22;3083;51.508;7.966;2022-10-31T07:18:36;11.40;99.90
6106;DHT22;3083;51.508;7.966;2022-10-31T07:21:03;11.50;99.90
6106;DHT22;3083;51.508;7.966;2022-10-31T07:23:31;11.60;99.90
6106;DHT22;3083;51.508;7.966;2022-10-31T07:25:58;11.70;99.90
6106;DHT22;3083;51.508;7.966;2022-10-31T07:28:28;11.70;99.90
6106;DHT22;3083;51.508;7.966;2022-10-31T07:30:56;11.80;99.90
6106;DHT22;3083;51.508;7.966;2022-10-31T07:33:24;11.90;99.90
6106;DHT22;3083;51.508;7.966;2022-10-31T07:35:53;12.00;99.90
6106;DHT22;3083;51.508;7.966;2022-10-31T07:38:20;12.10;99.90
6106;DHT22;3083;51.508;7.966;2022-10-31T07:40:50;12.20;99.90
6106;DHT22;3083;51.508;7.966;2022-10-31T07:43:17;12.40;99.90
6106;DHT22;3083;51.508;7.966;2022-10-31T07:45:50;12.50;99.90
6106;DHT22;3083;51.508;7.966;2022-10-31T07:48:17;12.60;99.90
6106;DHT22;3083;51.508;7.966;2022-10-31T07:50:44;12.80;99.90
6106;DHT22;3083;51.508;7.966;2022-10-31T07:53:13;12.90;99.90
6106;DHT22;3083;51.508;7.966;2022-10-31T07:55:40;13.00;99.90
6106;DHT22;3083;51.508;7.966;2022-10-31T07:58:08;13.10;99.90
6106;DHT22;3083;51.508;7.966;2022-10-31T08:00:37;13.30;99.90
6106;DHT22;3083;51.508;7.966;2022-10-31T08:03:07;13.30;99.90
6106;DHT22;3083;51.508;7.966;2022-10-31T08:05:35;13.40;99.90
6106;DHT22;3083;51.508;7.966;2022-10-31T08:08:02;13.50;99.90
6106;DHT22;3083;51.508;7.966;2022-10-31T08:10:30;13.50;99.90
6106;DHT22;3083;51.508;7.966;2022-10-31T08:12:58;13.60;99.90
6106;DHT22;3083;51.508;7.966;2022-10-31T08:15:25;13.60;99.90
6106;DHT22;3083;51.508;7.966;2022-10-31T08:17:53;13.60;99.90
6106;DHT22;3083;51.508;7.966;2022-10-31T08:20:22;13.70;99.90
6106;DHT22;3083;51.508;7.966;2022-10-31T08:22:54;13.70;99.90
6106;DHT22;3083;51.508;7.966;2022-10-31T08:25:21;13.70;99.90
6106;DHT22;3083;51.508;7.966;2022-10-31T08:27:49;13.70;99.90
6106;DHT22;3083;51.508;7.966;2022-10-31T08:30:17;13.70;99.90
6106;DHT22;3083;51.508;7.966;2022-10-31T08:32:44;13.80;99.90
6106;DHT22;3083;51.508;7.966;2022-10-31T08:35:11;13.80;99.90
6106;DHT22;3083;51.508;7.966;2022-10-31T08:37:39;13.80;99.90
6106;DHT22;3083;51.508;7.966;2022-10-31T08:40:07;13.90;99.90
6106;DHT22;3083;51.508;7.966;2022-10-31T08:42:34;13.90;99.90
6106;DHT22;3083;51.508;7.966;2022-10-31T08:45:01;13.90;99.90
6106;DHT22;3083;51.508;7.966;2022-10-31T08:47:28;13.90;99.90
6106;DHT22;3083;51.508;7.966;2022-10-31T08:49:55;13.90;99.90
6106;DHT22;3083;51.508;7.966;2022-10-31T08:52:24;13.90;99.90
6106;DHT22;3083;51.508;7.966;2022-10-31T08:54:53;14.00;99.90
6106;DHT22;3083;51.508;7.966;2022-10-31T08:57:20;14.10;99.90
6106;DHT22;3083;51.508;7.966;2022-10-31T08:59:47;14.10;99.90
6106;DHT22;3083;51.508;7.966;2022-10-31T09:02:15;14.20;99.90
6106;DHT22;3083;51.508;7.966;2022-10-31T09:04:42;14.40;99.90
6106;DHT22;3083;51.508;7.966;2022-10-31T09:07:08;14.50;99.90
6106;DHT22;3083;51.508;7.966;2022-10-31T09:09:35;14.60;99.90
6106;DHT22;3083;51.508;7.966;2022-10-31T09:12:04;14.80;99.90
6106;DHT22;3083;51.508;7.966;2022-10-31T09:14:31;15.00;99.90
6106;DHT22;3083;51.508;7.966;2022-10-31T09:16:58;15.10;99.90
6106;DHT22;3083;51.508;7.966;2022-10-31T09:19:25;15.30;99.90
6106;DHT22;3083;51.508;7.966;2022-10-31T09:21:52;15.50;99.90
6106;DHT22;3083;51.508;7.966;2022-10-31T09:24:20;15.70;99.90
6106;DHT22;3083;51.508;7.966;2022-10-31T09:26:47;15.90;99.90
6106;DHT22;3083;51.508;7.966;2022-10-31T09:29:15;16.10;99.90
6106;DHT22;3083;51.508;7.966;2022-10-31T09:31:42;16.30;99.90
6106;DHT22;3083;51.508;7.966;2022-10-31T09:34:09;16.40;99.90
6106;DHT22;3083;51.508;7.966;2022-10-31T09:36:37;16.60;99.90
6106;DHT22;3083;51.508;7.966;2022-10-31T09:39:04;16.80;99.90
6106;DHT22;3083;51.508;7.966;2022-10-31T09:41:43;17.00;99.90
6106;DHT22;3083;51.508;7.966;2022-10-31T09:44:20;17.10;99.90
6106;DHT22;3083;51.508;7.966;2022-10-31T09:46:55;17.30;99.90
6106;DHT22;3083;51.508;7.966;2022-10-31T09:49:49;17.30;99.90
6106;DHT22;3083;51.508;7.966;2022-10-31T09:52:22;17.40;99.90
6106;DHT22;3083;51.508;7.966;2022-10-31T09:54:53;17.50;99.90
6106;DHT22;3083;51.508;7.966;2022-10-31T09:57:25;17.70;99.90
6106;DHT22;3083;51.508;7.966;2022-10-31T09:59:55;17.90;99.90
6106;DHT22;3083;51.508;7.966;2022-10-31T10:02:25;18.10;99.90
6106;DHT22;3083;51.508;7.966;2022-10-31T10:04:56;18.20;99.90
6106;DHT22;3083;51.508;7.966;2022-10-31T10:07:30;18.40;99.90
6106;DHT22;3083;51.508;7.966;2022-10-31T10:10:00;18.60;99.90
6106;DHT22;3083;51.508;7.966;2022-10-31T10:12:39;18.90;99.90
6106;DHT22;3083;51.508;7.966;2022-10-31T10:15:29;19.00;99.90
6106;DHT22;3083;51.508;7.966;2022-10-31T10:18:06;19.00;99.90
6106;DHT22;3083;51.508;7.966;2022-10-31T10:20:41;19.00;99.90
6106;DHT22;3083;51.508;7.966;2022-10-31T10:23:32;19.10;99.90
6106;DHT22;3083;51.508;7.966;2022-10-31T10:26:06;19.20;99.90
6106;DHT22;3083;51.508;7.966;2022-10-31T10:28:38;19.20;99.90
6106;DHT22;3083;51.508;7.966;2022-10-31T10:31:11;19.20;99.90
6106;DHT22;3083;51.508;7.966;2022-10-31T10:33:43;19.20;99.90
6106;DHT22;3083;51.508;7.966;2022-10-31T10:36:13;19.10;99.90
6106;DHT22;3083;51.508;7.966;2022-10-31T10:38:49;19.10;99.90
6106;DHT22;3083;51.508;7.966;2022-10-31T10:41:18;19.00;99.90
6106;DHT22;3083;51.508;7.966;2022-10-31T10:43:45;18.90;99.90
6106;DHT22;3083;51.508;7.966;2022-10-31T10:46:23;18.90;99.90
6106;DHT22;3083;51.508;7.966;2022-10-31T10:49:16;18.90;99.90
6106;DHT22;3083;51.508;7.966;2022-10-31T10:51:46;18.90;99.90
6106;DHT22;3083;51.508;7.966;2022-10-31T10:57:30;18.80;99.90
6106;DHT22;3083;51.508;7.966;2022-10-31T11:00:01;18.80;99.90
6106;DHT22;3083;51.508;7.966;2022-10-31T11:02:32;18.80;99.90
6106;DHT22;3083;51.508;7.966;2022-10-31T11:05:01;18.80;99.90
6106;DHT22;3083;51.508;7.966;2022-10-31T11:07:38;18.90;99.90
6106;DHT22;3083;51.508;7.966;2022-10-31T11:10:06;19.00;99.90
6106;DHT22;3083;51.508;7.966;2022-10-31T11:12:39;19.10;99.90
6106;DHT22;3083;51.508;7.966;2022-10-31T11:15:17;19.40;99.90
6106;DHT22;3083;51.508;7.966;2022-10-31T11:17:48;19.70;99.90
6106;DHT22;3083;51.508;7.966;2022-10-31T11:20:31;19.90;99.90
6106;DHT22;3083;51.508;7.966;2022-10-31T11:23:16;20.20;99.90
6106;DHT22;3083;51.508;7.966;2022-10-31T11:25:52;20.60;99.90
6106;DHT22;3083;51.508;7.966;2022-10-31T11:28:20;20.80;99.90
6106;DHT22;3083;51.508;7.966;2022-10-31T11:30:50;21.00;99.90
6106;DHT22;3083;51.508;7.966;2022-10-31T11:33:24;21.10;99.90
6106;DHT22;3083;51.508;7.966;2022-10-31T11:35:53;21.10;99.90
6106;DHT22;3083;51.508;7.966;2022-10-31T11:38:23;21.10;99.90
6106;DHT22;3083;51.508;7.966;2022-10-31T11:40:55;21.00;99.90
6106;DHT22;3083;51.508;7.966;2022-10-31T11:43:24;21.00;99.90
6106;DHT22;3083;51.508;7.966;2022-10-31T11:45:51;21.00;99.90
6106;DHT22;3083;51.508;7.966;2022-10-31T11:48:21;20.90;99.90
6106;DHT22;3083;51.508;7.966;2022-10-31T11:50:51;21.00;99.90
6106;DHT22;3083;51.508;7.966;2022-10-31T11:53:20;21.00;99.90
6106;DHT22;3083;51.508;7.966;2022-10-31T11:56:01;21.00;99.90
6106;DHT22;3083;51.508;7.966;2022-10-31T11:58:29;21.00;99.90
6106;DHT22;3083;51.508;7.966;2022-10-31T12:00:57;21.10;99.90
6106;DHT22;3083;51.508;7.966;2022-10-31T12:03:44;21.00;99.90
6106;DHT22;3083;51.508;7.966;2022-10-31T12:06:18;21.10;99.90
6106;DHT22;3083;51.508;7.966;2022-10-31T12:08:47;21.10;99.90
6106;DHT22;3083;51.508;7.966;2022-10-31T12:11:37;21.10;99.90
6106;DHT22;3083;51.508;7.966;2022-10-31T12:14:14;21.20;99.90
6106;DHT22;3083;51.508;7.966;2022-10-31T12:16:48;21.20;99.90
6106;DHT22;3083;51.508;7.966;2022-10-31T12:19:24;21.30;99.90
6106;DHT22;3083;51.508;7.966;2022-10-31T12:22:05;21.30;99.90
6106;DHT22;3083;51.508;7.966;2022-10-31T12:24:43;21.40;99.90
6106;DHT22;3083;51.508;7.966;2022-10-31T12:27:19;21.50;99.90
6106;DHT22;3083;51.508;7.966;2022-10-31T12:30:00;21.50;99.90
6106;DHT22;3083;51.508;7.966;2022-10-31T12:32:34;21.50;99.90
6106;DHT22;3083;51.508;7.966;2022-10-31T12:35:21;21.50;99.90
6106;DHT22;3083;51.508;7.966;2022-10-31T12:38:05;21.50;99.90
6106;DHT22;3083;51.508;7.966;2022-10-31T12:40:51;21.50;99.90
6106;DHT22;3083;51.508;7.966;2022-10-31T12:43:32;21.60;99.90
6106;DHT22;3083;51.508;7.966;2022-10-31T12:46:02;21.50;99.90
6106;DHT22;3083;51.508;7.966;2022-10-31T12:51:43;21.60;99.90
6106;DHT22;3083;51.508;7.966;2022-10-31T12:54:24;21.60;99.90
6106;DHT22;3083;51.508;7.966;2022-10-31T12:57:00;21.60;99.90
6106;DHT22;3083;51.508;7.966;2022-10-31T12:59:33;21.60;99.90
6106;DHT22;3083;51.508;7.966;2022-10-31T13:02:04;21.60;99.90
6106;DHT22;3083;51.508;7.966;2022-10-31T13:04:41;21.60;99.90
6106;DHT22;3083;51.508;7.966;2022-10-31T13:07:13;21.60;99.90
6106;DHT22;3083;51.508;7.966;2022-10-31T13:09:46;21.50;99.90
6106;DHT22;3083;51.508;7.966;2022-10-31T13:12:17;21.50;99.90
6106;DHT22;3083;51.508;7.966;2022-10-31T13:14:47;21.50;99.90
6106;DHT22;3083;51.508;7.966;2022-10-31T13:17:21;21.50;99.90
6106;DHT22;3083;51.508;7.966;2022-10-31T13:19:50;21.40;99.90
6106;DHT22;3083;51.508;7.966;2022-10-31T13:22:24;21.40;99.90
6106;DHT22;3083;51.508;7.966;2022-10-31T13:24:56;21.30;99.90
6106;DHT22;3083;51.508;7.966;2022-10-31T13:27:25;21.20;99.90
6106;DHT22;3083;51.508;7.966;2022-10-31T13:30:00;21.20;99.90
6106;DHT22;3083;51.508;7.966;2022-10-31T13:32:35;21.10;99.90
6106;DHT22;3083;51.508;7.966;2022-10-31T13:35:05;21.10;99.90
6106;DHT22;3083;51.508;7.966;2022-10-31T13:37:38;21.00;99.90
6106;DHT22;3083;51.508;7.966;2022-10-31T13:40:15;21.00;99.90
6106;DHT22;3083;51.508;7.966;2022-10-31T13:42:53;20.90;99.90
6106;DHT22;3083;51.508;7.966;2022-10-31T13:45:23;20.80;99.90
6106;DHT22;3083;51.508;7.966;2022-10-31T13:47:58;20.80;99.90
6106;DHT22;3083;51.508;7.966;2022-10-31T13:50:27;20.80;99.90
6106;DHT22;3083;51.508;7.966;2022-10-31T13:53:12;20.70;99.90
6106;DHT22;3083;51.508;7.966;2022-10-31T13:55:42;20.70;99.90
6106;DHT22;3083;51.508;7.966;2022-10-31T13:58:33;20.60;99.90
6106;DHT22;3083;51.508;7.966;2022-10-31T14:01:13;20.60;99.90
6106;DHT22;3083;51.508;7.966;2022-10-31T14:03:45;20.50;99.90
6106;DHT22;3083;51.508;7.966;2022-10-31T14:06:13;20.40;99.90
6106;DHT22;3083;51.508;7.966;2022-10-31T14:08:48;20.40;99.90
6106;DHT22;3083;51.508;7.966;2022-10-31T14:11:22;20.30;99.90
6106;DHT22;3083;51.508;7.966;2022-10-31T14:13:50;20.30;99.90
6106;DHT22;3083;51.508;7.966;2022-10-31T14:16:20;20.30;99.90
6106;DHT22;3083;51.508;7.966;2022-10-31T14:18:50;20.20;99.90
6106;DHT22;3083;51.508;7.966;2022-10-31T14:21:28;20.20;99.90
6106;DHT22;3083;51.508;7.966;2022-10-31T14:23:58;20.10;99.90
6106;DHT22;3083;51.508;7.966;2022-10-31T14:26:34;20.10;99.90
6106;DHT22;3083;51.508;7.966;2022-10-31T14:29:03;20.10;99.90
6106;DHT22;3083;51.508;7.966;2022-10-31T14:31:53;20.00;99.90
6106;DHT22;3083;51.508;7.966;2022-10-31T14:34:23;20.00;99.90
6106;DHT22;3083;51.508;7.966;2022-10-31T14:37:14;20.00;99.90
6106;DHT22;3083;51.508;7.966;2022-10-31T14:39:52;19.90;99.90
6106;DHT22;3083;51.508;7.966;2022-10-31T14:42:31;19.90;99.90
6106;DHT22;3083;51.508;7.966;2022-10-31T14:45:15;19.90;99.90
6106;DHT22;3083;51.508;7.966;2022-10-31T14:47:52;19.90;99.90
6106;DHT22;3083;51.508;7.966;2022-10-31T14:50:44;19.80;99.90
6106;DHT22;3083;51.508;7.966;2022-10-31T14:53:19;19.80;99.90
6106;DHT22;3083;51.508;7.966;2022-10-31T14:55:52;19.80;99.90
6106;DHT22;3083;51.508;7.966;2022-10-31T14:58:22;19.80;99.90
6106;DHT22;3083;51.508;7.966;2022-10-31T15:00:54;19.80;99.90
6106;DHT22;3083;51.508;7.966;2022-10-31T15:03:25;19.70;99.90
6106;DHT22;3083;51.508;7.966;2022-10-31T15:05:55;19.70;99.90
6106;DHT22;3083;51.508;7.966;2022-10-31T15:08:29;19.70;99.90
6106;DHT22;3083;51.508;7.966;2022-10-31T15:11:03;19.70;99.90
6106;DHT22;3083;51.508;7.966;2022-10-31T15:13:30;19.60;99.90
6106;DHT22;3083;51.508;7.966;2022-10-31T15:15:57;19.60;99.90
6106;DHT22;3083;51.508;7.966;2022-10-31T15:18:26;19.50;99.90
6106;DHT22;3083;51.508;7.966;2022-10-31T15:20:55;19.50;99.90
6106;DHT22;3083;51.508;7.966;2022-10-31T15:23:24;19.40;99.90
6106;DHT22;3083;51.508;7.966;2022-10-31T15:25:59;19.30;99.90
6106;DHT22;3083;51.508;7.966;2022-10-31T15:28:28;19.10;99.90
6106;DHT22;3083;51.508;7.966;2022-10-31T15:30:56;19.00;99.90
6106;DHT22;3083;51.508;7.966;2022-10-31T15:33:25;18.80;99.90
6106;DHT22;3083;51.508;7.966;2022-10-31T15:36:00;18.70;99.90
6106;DHT22;3083;51.508;7.966;2022-10-31T15:38:28;18.60;99.90
6106;DHT22;3083;51.508;7.966;2022-10-31T15:40:58;18.50;99.90
6106;DHT22;3083;51.508;7.966;2022-10-31T15:43:29;18.30;99.90
6106;DHT22;3083;51.508;7.966;2022-10-31T15:46:00;18.20;99.90
6106;DHT22;3083;51.508;7.966;2022-10-31T15:48:27;18.10;99.90
6106;DHT22;3083;51.508;7.966;2022-10-31T15:50:57;18.00;99.90
6106;DHT22;3083;51.508;7.966;2022-10-31T15:53:27;17.90;99.90
6106;DHT22;3083;51.508;7.966;2022-10-31T15:55:59;17.80;99.90
6106;DHT22;3083;51.508;7.966;2022-10-31T15:58:28;17.70;99.90
6106;DHT22;3083;51.508;7.966;2022-10-31T16:00:57;17.70;99.90
6106;DHT22;3083;51.508;7.966;2022-10-31T16:03:26;17.60;99.90
6106;DHT22;3083;51.508;7.966;2022-10-31T16:05:55;17.60;99.90
6106;DHT22;3083;51.508;7.966;2022-10-31T16:08:31;17.60;99.90
6106;DHT22;3083;51.508;7.966;2022-10-31T16:11:00;17.50;99.90
6106;DHT22;3083;51.508;7.966;2022-10-31T16:13:31;17.50;99.90
6106;DHT22;3083;51.508;7.966;2022-10-31T16:16:02;17.50;99.90
6106;DHT22;3083;51.508;7.966;2022-10-31T16:18:35;17.50;99.90
6106;DHT22;3083;51.508;7.966;2022-10-31T16:21:03;17.40;99.90
6106;DHT22;3083;51.508;7.966;2022-10-31T16:23:31;17.40;99.90
6106;DHT22;3083;51.508;7.966;2022-10-31T16:25:58;17.40;99.90
6106;DHT22;3083;51.508;7.966;2022-10-31T16:28:26;17.40;99.90
6106;DHT22;3083;51.508;7.966;2022-10-31T16:30:56;17.50;99.90
6106;DHT22;3083;51.508;7.966;2022-10-31T16:33:28;17.50;99.90
6106;DHT22;3083;51.508;7.966;2022-10-31T16:35:57;17.60;99.90
6106;DHT22;3083;51.508;7.966;2022-10-31T16:38:24;17.60;99.90